Everglades National Park, FL

9:23 PM EST on January 25, 2015 (GMT -0500)
Farmland Estates | Change Station
CLOSE
Current Station
Personal Weather Station
Location: Homestead, FL
Elevation: 8 ft
Nearby Weather Stations

Elev 8 ft 25.47 °N, 80.52 °W | Updated 0 second ago

Partly Cloudy
Partly Cloudy
55.7 °F
Feels Like 55.7 °F
N
2.0
Wind Variable Wind from WNW
Gusts 2.0 mph

Today
High -- | Low -- °F
--% Chance of Precip.
Yesterday
High -- | Low -- °F
Precip. -- in
7:08 AM 6:00 PM
Waxing Crescent, 38% visible
Pressure 30.06 in
Visibility 10.0 miles
Clouds Clear
Dew Point 51 °F
Humidity 83%
Rainfall 0.00 in
Snow Depth Not available.
UV 0.0 out of 12
Pollen 6.70 out of 12
Air Quality Not available.
Flu Activity Not available.
METAR KHST 260158Z AUTO 25004KT 10SM CLR 13/10 A3005 RMK AO2 SLP179 T01290103

More Conditions Fewer Conditions

Pressure 30.06 in
Visibility 10.0 miles
Clouds Clear
Dew Point 51 °F
Humidity 83%
Rainfall 0.00 in
Snow Depth Not available.
UV 0.0 out of 12
Pollen 6.70 out of 12
Air Quality Not available.
Flu Activity Not available.
METAR KHST 260158Z AUTO 25004KT 10SM CLR 13/10 A3005 RMK AO2 SLP179 T01290103

More Conditions Fewer Conditions

10-Day Weather Forecast

Almanac

Astronomy

Jan. 25, 2015 Rise Set
Actual Time
Civil Twilight
Nautical Twilight
Astronomical Twilight
Moon
Length of Visible Light
Length of Day
Tomorrow will be .
, % of the Moon is Illuminated

Today's Extremes

State Highs State Lows

Community

WunderPhotos

Upload Photos

1,790,069 photos uploaded!

WunderBlogs® & News

Nearby

Air Quality

  Air Quality AQ Index Pollutant
Not available.

Snow Depth

Station Depth Elevation

Earthquake Activity

City Distance Mag. Time & Date
Minimum magnitude displayed is 2.5.

Coastal Water Temperatures

Place Temperature

Nearby Weather Stations